Time;durP1;ratioP1;P1;durP2;ratioP2;P2;SDS_P1;SDS_P2;PMS_P1;PMS_P2;Temp;Humidity;BMP_temperature;BMP_pressure;BME280_temperature;BME280_humidity;BME280_pressure;Samples;Min_cycle;Max_cycle;Signal;HPM_P1;HPM_P2
2022/08/13 00:01:40;;;;;;;19.85;4.95;;;22.20;95.60;;;;;;5095002;28;20039;-69
2022/08/13 00:04:14;;;;;;;13.52;4.97;;;21.40;93.20;;;;;;5094093;28;20495;-69
2022/08/13 00:09:10;;;;;;;9.15;5.13;;;22.10;98.60;;;;;;5110768;28;20040;-69
2022/08/13 00:14:29;;;;;;;11.70;4.82;;;21.00;95.00;;;;;;5109623;28;20031;-69
2022/08/13 00:16:54;;;;;;;10.82;5.03;;;21.70;98.70;;;;;;5076713;28;20086;-69
2022/08/13 00:19:21;;;;;;;7.97;4.97;;;20.50;98.40;;;;;;5095927;28;20075;-70
2022/08/13 00:21:47;;;;;;;9.73;5.45;;;;;;;;;;5095384;28;20455;-70
2022/08/13 00:24:14;;;;;;;9.50;5.20;;;20.40;98.40;;;;;;5094642;28;20180;-69
2022/08/13 00:26:40;;;;;;;12.38;5.15;;;22.00;98.80;;;;;;5109680;28;20086;-70
2022/08/13 00:29:06;;;;;;;10.52;5.55;;;21.80;98.60;;;;;;5111616;28;20067;-69
2022/08/13 00:31:32;;;;;;;9.38;5.30;;;20.70;98.20;;;;;;5098638;28;20043;-69
2022/08/13 00:33:59;;;;;;;11.30;5.55;;;20.70;98.30;;;;;;5094480;28;20038;-70
2022/08/13 00:36:25;;;;;;;10.90;5.70;;;19.90;98.20;;;;;;5106358;28;20035;-69
2022/08/13 00:38:53;;;;;;;10.48;5.82;;;20.50;94.30;;;;;;5085759;28;20048;-69
2022/08/13 00:41:37;;;;;;;11.07;5.95;;;20.60;93.90;;;;;;5102121;28;20047;-69
2022/08/13 00:44:05;;;;;;;13.70;6.13;;;21.80;98.80;;;;;;5095687;28;20032;-69
2022/08/13 00:46:33;;;;;;;13.52;6.68;;;20.30;98.50;;;;;;5096630;28;20050;-69
2022/08/13 00:48:58;;;;;;;15.30;6.15;;;21.60;98.80;;;;;;5094215;28;20036;-69
2022/08/13 00:51:26;;;;;;;10.02;5.90;;;20.20;98.50;;;;;;5099117;28;20036;-69
2022/08/13 00:53:57;;;;;;;9.95;6.30;;;19.90;98.50;;;;;;5076120;28;20032;-69
2022/08/13 00:56:24;;;;;;;13.52;6.47;;;;;;;;;;5099027;28;20121;-69
2022/08/13 00:58:50;;;;;;;10.05;5.70;;;20.20;98.60;;;;;;5096944;28;20036;-69
2022/08/13 01:01:18;;;;;;;11.85;6.45;;;20.60;94.20;;;;;;5100541;28;20035;-69
2022/08/13 01:03:44;;;;;;;7.95;5.82;;;19.30;98.40;;;;;;5094325;28;20118;-69
2022/08/13 01:06:10;;;;;;;12.63;6.43;;;19.30;98.40;;;;;;5103996;28;20480;-69
2022/08/13 01:08:40;;;;;;;11.23;5.57;;;19.70;98.60;;;;;;5095395;28;20048;-70
2022/08/13 01:11:13;;;;;;;8.18;6.15;;;19.10;98.50;;;;;;5100141;28;20058;-69
2022/08/13 01:13:41;;;;;;;10.20;6.50;;;20.90;99.00;;;;;;5093344;28;20165;-69
2022/08/13 01:16:13;;;;;;;10.43;6.05;;;20.80;99.10;;;;;;5110803;28;20052;-69
2022/08/13 01:18:51;;;;;;;11.10;6.18;;;20.30;93.80;;;;;;5090019;28;20548;-69
2022/08/13 01:21:20;;;;;;;9.90;5.97;;;21.00;99.30;;;;;;5093569;28;20044;-69
2022/08/13 01:23:49;;;;;;;21.48;6.78;;;20.20;95.00;;;;;;5100323;28;20089;-69
2022/08/13 01:26:16;;;;;;;14.77;6.30;;;20.30;99.20;;;;;;5092414;28;20515;-69
2022/08/13 01:28:44;;;;;;;13.52;6.47;;;19.00;98.90;;;;;;5099774;28;20479;-69
2022/08/13 01:31:12;;;;;;;10.48;6.30;;;21.20;99.50;;;;;;5110850;28;20044;-69
2022/08/13 01:33:41;;;;;;;13.85;6.65;;;19.90;99.20;;;;;;5100558;28;20054;-69
2022/08/13 01:36:07;;;;;;;10.60;6.63;;;20.80;97.70;;;;;;5109190;28;20032;-69
2022/08/13 01:38:36;;;;;;;10.55;5.85;;;19.70;99.20;;;;;;5097734;28;20075;-69
2022/08/13 01:41:03;;;;;;;19.48;6.78;;;19.90;95.10;;;;;;5109178;28;20078;-70
2022/08/13 01:43:30;;;;;;;14.27;6.32;;;21.00;99.60;;;;;;5105911;28;20048;-69
2022/08/13 01:46:00;;;;;;;10.18;6.60;;;20.30;99.50;;;;;;5088312;28;20124;-69
2022/08/13 01:51:21;;;;;;;15.68;6.60;;;20.70;99.40;;;;;;5105172;28;20071;-69
2022/08/13 01:53:49;;;;;;;18.13;6.68;;;19.70;95.40;;;;;;5077759;28;20101;-69
2022/08/13 01:56:16;;;;;;;8.43;6.43;;;20.90;99.90;;;;;;5091948;28;20071;-69
2022/08/13 01:58:42;;;;;;;9.35;5.85;;;19.60;95.00;;;;;;5102617;28;20051;-69
2022/08/13 02:01:08;;;;;;;13.18;7.18;;;19.80;99.80;;;;;;5082974;28;20051;-69
2022/08/13 02:03:34;;;;;;;14.57;6.70;;;18.30;99.40;;;;;;5094595;28;20484;-70
2022/08/13 02:06:00;;;;;;;16.77;7.15;;;;;;;;;;5110199;28;20040;-69
2022/08/13 02:08:27;;;;;;;15.70;7.10;;;;;;;;;;5108176;28;20429;-69
2022/08/13 02:10:54;;;;;;;14.52;6.78;;;20.60;98.60;;;;;;5108154;28;20143;-69
2022/08/13 02:13:22;;;;;;;12.13;6.70;;;19.40;95.70;;;;;;5109807;28;20036;-69
2022/08/13 02:15:49;;;;;;;12.10;6.47;;;20.60;99.90;;;;;;5096937;28;20381;-69
2022/08/13 02:18:19;;;;;;;19.58;7.78;;;18.30;99.60;;;;;;5108330;28;20047;-69
2022/08/13 02:20:53;;;;;;;12.93;7.40;;;19.70;95.90;;;;;;5106988;28;20049;-69
2022/08/13 02:23:22;;;;;;;13.27;7.65;;;20.70;96.10;;;;;;5108486;28;20043;-69
2022/08/13 02:25:50;;;;;;;19.63;8.18;;;20.40;99.90;;;;;;5095884;28;20043;-69
2022/08/13 02:28:19;;;;;;;13.65;7.95;;;19.70;99.90;;;;;;5110670;28;20039;-69
2022/08/13 02:30:47;;;;;;;13.93;7.45;;;18.20;99.80;;;;;;5108421;28;20050;-69
2022/08/13 02:33:13;;;;;;;12.57;7.80;;;19.30;95.90;;;;;;5111967;28;20387;-69
2022/08/13 02:35:39;;;;;;;13.02;8.32;;;19.50;96.00;;;;;;5106320;28;20043;-69
2022/08/13 02:38:06;;;;;;;13.73;8.02;;;19.10;99.90;;;;;;5109769;28;20036;-69
2022/08/13 02:43:17;;;;;;;11.43;7.95;;;20.30;98.30;;;;;;5098359;28;20051;-69
2022/08/13 02:45:46;;;;;;;16.38;8.27;;;18.70;99.90;;;;;;5095454;28;20047;-69
2022/08/13 02:48:12;;;;;;;13.77;8.48;;;19.80;99.20;;;;;;5098346;28;20035;-69
2022/08/13 02:50:42;;;;;;;17.20;8.85;;;;;;;;;;5096409;28;20066;-69
2022/08/13 02:53:09;;;;;;;13.55;8.07;;;18.00;98.00;;;;;;5103290;28;20075;-69
2022/08/13 02:55:36;;;;;;;14.90;8.40;;;19.80;99.90;;;;;;5096452;28;20119;-69
2022/08/13 02:58:03;;;;;;;13.93;8.45;;;;;;;;;;5106736;28;20043;-69
2022/08/13 03:00:30;;;;;;;12.48;8.43;;;20.10;99.00;;;;;;5112441;28;20039;-69
2022/08/13 03:02:57;;;;;;;14.93;8.57;;;18.80;95.70;;;;;;5103578;28;20085;-69
2022/08/13 03:05:23;;;;;;;12.13;8.10;;;17.90;98.30;;;;;;5095228;28;20040;-69
2022/08/13 03:07:49;;;;;;;12.40;8.00;;;17.80;99.50;;;;;;5102735;28;20035;-69
2022/08/13 03:10:17;;;;;;;16.33;7.90;;;18.10;99.90;;;;;;5112122;28;20055;-69
2022/08/13 03:12:49;;;;;;;16.65;7.85;;;18.90;96.60;;;;;;5101837;28;20114;-69
2022/08/13 03:15:15;;;;;;;;;;;18.80;96.80;;;;;;5104314;28;20043;-69
2022/08/13 03:17:41;;;;;;;17.48;8.43;;;;;;;;;;5101035;28;19928;-69
2022/08/13 03:20:09;;;;;;;13.77;7.88;;;19.00;96.10;;;;;;5095184;28;20031;-69
2022/08/13 03:22:48;;;;;;;14.02;7.68;;;18.80;99.90;;;;;;5099883;28;20368;-69
2022/08/13 03:25:15;;;;;;;15.15;8.65;;;17.60;99.90;;;;;;5114365;28;20392;-69
2022/08/13 03:27:41;;;;;;;19.90;8.90;;;18.40;97.50;;;;;;5098460;28;20043;-69
2022/08/13 03:30:09;;;;;;;16.63;8.32;;;18.70;96.60;;;;;;5093366;28;20084;-69
2022/08/13 03:32:40;;;;;;;14.48;8.20;;;18.90;96.70;;;;;;5097783;28;20129;-69
2022/08/13 03:35:16;;;;;;;11.40;8.18;;;17.70;99.80;;;;;;5104041;28;20111;-69
2022/08/13 03:37:45;;;;;;;17.23;8.50;;;17.40;99.90;;;;;;5100935;28;20485;-69
2022/08/13 03:40:12;;;;;;;15.30;8.50;;;18.00;99.90;;;;;;5077530;28;20032;-69
2022/08/13 03:42:40;;;;;;;11.50;8.50;;;17.60;97.20;;;;;;5110177;28;20040;-69
2022/08/13 03:45:08;;;;;;;15.73;8.07;;;18.50;96.20;;;;;;5077448;28;20047;-69
2022/08/13 03:47:34;;;;;;;14.18;8.20;;;19.40;99.90;;;;;;5104461;28;20495;-68
2022/08/13 03:50:03;;;;;;;15.48;8.35;;;18.80;96.70;;;;;;5095267;28;20062;-68
2022/08/13 03:52:30;;;;;;;14.70;8.40;;;;;;;;;;5094197;28;20044;-68
2022/08/13 03:54:57;;;;;;;15.95;8.13;;;17.20;99.90;;;;;;5112702;28;20054;-68
2022/08/13 03:57:23;;;;;;;12.88;8.85;;;;;;;;;;5110867;28;20055;-68
2022/08/13 03:59:49;;;;;;;18.55;8.80;;;18.40;96.60;;;;;;5095836;28;20035;-68
2022/08/13 04:02:16;;;;;;;18.42;8.65;;;;;;;;;;5102126;28;20391;-68
2022/08/13 04:04:50;;;;;;;11.00;8.18;;;19.00;97.90;;;;;;5096526;28;20460;-68
2022/08/13 04:07:20;;;;;;;15.48;8.48;;;17.10;99.90;;;;;;5096581;28;20538;-68
2022/08/13 04:09:46;;;;;;;13.02;8.60;;;19.30;99.90;;;;;;5109961;28;20130;-68
2022/08/13 04:12:13;;;;;;;14.02;8.45;;;18.50;96.40;;;;;;5111754;28;20075;-68
2022/08/13 04:14:40;;;;;;;13.30;7.68;;;18.60;96.70;;;;;;5110972;28;20046;-68
2022/08/13 04:17:09;;;;;;;14.55;7.97;;;18.60;99.90;;;;;;5095477;28;20040;-68
2022/08/13 04:19:36;;;;;;;11.18;7.82;;;;;;;;;;5106839;28;20039;-68
2022/08/13 04:22:02;;;;;;;11.45;8.13;;;;;;;;;;5105387;28;20394;-68
2022/08/13 04:24:28;;;;;;;12.45;8.63;;;;;;;;;;5100757;28;20032;-68
2022/08/13 04:26:58;;;;;;;12.98;7.75;;;;;;;;;;5097321;28;20048;-68
2022/08/13 04:29:28;;;;;;;16.63;7.72;;;19.30;97.20;;;;;;5106454;28;20066;-68
2022/08/13 04:31:54;;;;;;;12.68;9.07;;;19.30;98.70;;;;;;5094793;28;20028;-68
2022/08/13 04:34:23;;;;;;;18.77;8.57;;;17.20;99.90;;;;;;5090078;28;20122;-68
2022/08/13 04:36:52;;;;;;;14.80;8.90;;;17.50;99.90;;;;;;5111818;28;20031;-72
2022/08/13 04:39:19;;;;;;;14.05;9.63;;;;;;;;;;5086778;28;20032;-72
2022/08/13 04:41:48;;;;;;;18.95;8.93;;;18.40;96.90;;;;;;5090733;28;20028;-72
2022/08/13 04:44:13;;;;;;;14.13;8.43;;;19.00;99.90;;;;;;5078928;28;20055;-75
2022/08/13 04:46:40;;;;;;;14.88;8.48;;;;;;;;;;5077028;28;20472;-75
2022/08/13 04:49:11;;;;;;;18.13;7.97;;;19.30;97.10;;;;;;5106683;28;20495;-75
2022/08/13 04:51:43;;;;;;;10.73;8.18;;;18.40;96.80;;;;;;5098684;28;20043;-75
2022/08/13 04:54:11;;;;;;;14.98;8.25;;;18.90;99.90;;;;;;5087216;28;20036;-75
2022/08/13 04:56:37;;;;;;;15.65;8.38;;;19.70;99.90;;;;;;5093529;28;20047;-75
2022/08/13 04:59:04;;;;;;;15.65;8.75;;;19.10;99.90;;;;;;5105182;28;20036;-75
2022/08/13 05:01:30;;;;;;;11.02;8.45;;;;;;;;;;5095753;28;20119;-69
2022/08/13 05:04:00;;;;;;;15.88;8.57;;;17.40;99.90;;;;;;5102304;28;20031;-68
2022/08/13 05:06:27;;;;;;;15.05;8.80;;;;;;;;;;5091200;28;20044;-68
2022/08/13 05:08:54;;;;;;;15.82;9.30;;;;;;;;;;5078995;28;20065;-69
2022/08/13 05:11:20;;;;;;;15.52;8.98;;;18.20;99.90;;;;;;5091144;28;20035;-68
2022/08/13 05:13:49;;;;;;;17.55;8.60;;;;;;;;;;5087436;28;20038;-68
2022/08/13 05:16:16;;;;;;;12.45;7.85;;;;;;;;;;5075883;28;20032;-68
2022/08/13 05:18:45;;;;;;;12.50;8.00;;;17.30;99.90;;;;;;5083343;28;20040;-68
2022/08/13 05:21:14;;;;;;;16.88;8.15;;;18.50;96.80;;;;;;5093735;28;20032;-68
2022/08/13 05:23:42;;;;;;;13.43;8.07;;;18.60;96.70;;;;;;5093306;28;20039;-69
2022/08/13 05:26:10;;;;;;;12.15;7.82;;;18.40;96.70;;;;;;5110111;28;20036;-69
2022/08/13 05:28:37;;;;;;;12.90;7.70;;;17.70;99.90;;;;;;5088415;28;20045;-68
2022/08/13 05:31:09;;;;;;;14.88;8.70;;;18.80;95.70;;;;;;5102220;28;20047;-68
2022/08/13 05:33:38;;;;;;;;;;;18.60;97.20;;;;;;5096184;28;20040;-69
2022/08/13 05:36:04;;;;;;;14.55;7.63;;;;;;;;;;5103682;28;19916;-69
2022/08/13 05:38:35;;;;;;;10.82;7.75;;;;;;;;;;5110358;28;20035;-69
2022/08/13 05:41:07;;;;;;;14.18;8.50;;;19.00;99.90;;;;;;5086009;28;20040;-69
2022/08/13 05:43:35;;;;;;;10.13;7.88;;;;;;;;;;5106862;28;20503;-69
2022/08/13 05:46:14;;;;;;;17.90;7.50;;;19.00;96.30;;;;;;5096122;28;20047;-69
2022/08/13 05:48:43;;;;;;;12.20;7.35;;;17.70;99.90;;;;;;5092952;28;20040;-69
2022/08/13 05:51:13;;;;;;;9.98;7.25;;;19.60;99.90;;;;;;5079559;28;20080;-68
2022/08/13 05:53:39;;;;;;;14.18;7.13;;;19.70;99.90;;;;;;5076496;28;20039;-68
2022/08/13 05:56:06;;;;;;;12.20;7.85;;;19.00;96.00;;;;;;5097158;28;20044;-68
2022/08/13 05:58:41;;;;;;;13.88;7.32;;;19.00;95.40;;;;;;5107015;28;20173;-68
2022/08/13 06:03:52;;;;;;;13.77;7.25;;;17.90;99.80;;;;;;5091743;28;20671;-69
2022/08/13 06:06:21;;;;;;;11.63;8.02;;;18.40;99.70;;;;;;5077159;28;20034;-69
2022/08/13 06:08:47;;;;;;;11.80;7.50;;;19.60;99.90;;;;;;5093231;28;20510;-68
2022/08/13 06:11:16;;;;;;;10.93;7.57;;;;;;;;;;5079587;28;20048;-69
2022/08/13 06:13:42;;;;;;;11.38;7.10;;;;;;;;;;5109525;28;20047;-68
2022/08/13 06:16:10;;;;;;;16.42;8.57;;;19.40;95.60;;;;;;5104874;28;20036;-68
2022/08/13 06:18:37;;;;;;;11.55;6.95;;;;;;;;;;5103144;28;20491;-68
2022/08/13 06:21:06;;;;;;;13.50;7.65;;;19.40;95.50;;;;;;5102516;28;20496;-68
2022/08/13 06:23:36;;;;;;;13.38;7.13;;;19.40;95.50;;;;;;5093298;28;20081;-68
2022/08/13 06:26:03;;;;;;;12.65;6.97;;;19.40;95.50;;;;;;5108276;28;20453;-68
2022/08/13 06:28:31;;;;;;;16.65;6.95;;;20.50;99.80;;;;;;5091207;28;20444;-68
2022/08/13 06:31:00;;;;;;;11.65;6.82;;;19.60;95.40;;;;;;5101893;28;20031;-68
2022/08/13 06:33:31;;;;;;;16.23;6.68;;;18.70;99.30;;;;;;5109102;28;20038;-69
2022/08/13 06:35:58;;;;;;;11.27;6.88;;;;;;;;;;5099582;28;20043;-69
2022/08/13 06:38:32;;;;;;;9.77;7.20;;;19.70;95.50;;;;;;5103481;28;20043;-68
2022/08/13 06:41:00;;;;;;;9.38;6.95;;;20.10;99.40;;;;;;5098334;28;20114;-68
2022/08/13 06:43:41;;;;;;;13.38;6.65;;;20.20;99.40;;;;;;5102379;28;20040;-68
2022/08/13 06:46:08;;;;;;;13.45;7.03;;;20.00;94.70;;;;;;5099099;28;20039;-68
2022/08/13 06:48:35;;;;;;;11.13;6.75;;;21.00;99.50;;;;;;5097306;28;20040;-68
2022/08/13 06:51:07;;;;;;;12.68;6.00;;;18.90;94.60;;;;;;5098242;28;20055;-68
2022/08/13 06:53:38;;;;;;;18.73;7.03;;;21.10;99.20;;;;;;5103757;28;20119;-72
2022/08/13 06:56:11;;;;;;;10.40;6.18;;;20.40;95.00;;;;;;5091038;28;20051;-69
2022/08/13 06:58:38;;;;;;;11.52;6.68;;;20.40;94.90;;;;;;5100457;28;20100;-69
2022/08/13 07:01:05;;;;;;;15.55;6.05;;;;;;;;;;5092565;28;20126;-69
2022/08/13 07:03:33;;;;;;;11.68;6.40;;;20.50;94.80;;;;;;5101784;28;20027;-69
2022/08/13 07:06:00;;;;;;;12.50;6.00;;;;;;;;;;5097661;28;20047;-69
2022/08/13 07:08:28;;;;;;;13.35;5.90;;;19.50;97.00;;;;;;5099387;28;20093;-69
2022/08/13 07:13:43;;;;;;;12.15;5.30;;;20.50;94.10;;;;;;5085642;28;20130;-69
2022/08/13 07:16:11;;;;;;;18.58;5.57;;;21.60;98.30;;;;;;5100651;28;20058;-69
2022/08/13 07:18:38;;;;;;;11.02;5.45;;;21.60;98.30;;;;;;5098677;28;20102;-69
2022/08/13 07:21:11;;;;;;;8.90;4.88;;;21.20;98.00;;;;;;5096259;28;20040;-69
2022/08/13 07:23:39;;;;;;;12.15;5.07;;;21.00;93.90;;;;;;5099852;28;20044;-69
2022/08/13 07:26:05;;;;;;;11.50;5.13;;;21.00;93.40;;;;;;5098914;28;20039;-69
2022/08/13 07:28:33;;;;;;;7.35;4.53;;;20.50;93.40;;;;;;5090969;28;20039;-69
2022/08/13 07:31:00;;;;;;;12.13;5.90;;;21.30;95.00;;;;;;5094701;28;20047;-69
2022/08/13 07:33:27;;;;;;;7.40;4.43;;;21.40;93.10;;;;;;5099416;28;20131;-68
2022/08/13 07:35:53;;;;;;;12.77;4.50;;;22.10;93.80;;;;;;5100757;28;20097;-69
2022/08/13 07:38:19;;;;;;;10.48;4.63;;;;;;;;;;5098749;28;20044;-71
2022/08/13 07:40:53;;;;;;;13.18;4.50;;;21.60;92.60;;;;;;5094129;28;20036;-70
2022/08/13 07:43:19;;;;;;;9.50;4.45;;;22.40;96.80;;;;;;5093975;28;20379;-71
2022/08/13 07:46:07;;;;;;;6.68;4.07;;;22.50;96.70;;;;;;5094591;28;20451;-71
2022/08/13 07:48:34;;;;;;;11.45;4.07;;;21.90;92.10;;;;;;5095519;28;20119;-71
2022/08/13 07:51:02;;;;;;;9.57;4.28;;;21.90;92.60;;;;;;5094368;28;20043;-71
2022/08/13 07:53:28;;;;;;;7.60;4.50;;;;;;;;;;5077251;28;20334;-71
2022/08/13 07:55:55;;;;;;;6.35;4.00;;;22.10;91.10;;;;;;5094128;28;20075;-71
2022/08/13 07:58:27;;;;;;;7.95;4.40;;;21.60;95.20;;;;;;5094079;28;20118;-71
2022/08/13 08:00:59;;;;;;;9.23;4.57;;;22.70;95.20;;;;;;5094350;28;20508;-71
2022/08/13 08:03:30;;;;;;;8.50;3.80;;;22.20;94.90;;;;;;5077827;28;20165;-71
2022/08/13 08:05:57;;;;;;;9.23;4.27;;;22.50;90.70;;;;;;5094051;28;20036;-71
2022/08/13 08:08:26;;;;;;;10.70;3.83;;;23.40;94.20;;;;;;5094083;28;20036;-71
2022/08/13 08:10:54;;;;;;;10.65;3.78;;;22.30;94.30;;;;;;5093911;28;20056;-71
2022/08/13 08:13:21;;;;;;;7.55;4.30;;;22.90;90.20;;;;;;5094236;28;20590;-71
2022/08/13 08:15:47;;;;;;;14.90;3.95;;;;;;;;;;5077457;28;20365;-70
2022/08/13 08:18:14;;;;;;;9.23;4.10;;;23.50;94.00;;;;;;5093690;28;20051;-71
2022/08/13 08:20:42;;;;;;;8.35;3.70;;;23.90;94.00;;;;;;5076769;28;20051;-71
2022/08/13 08:23:11;;;;;;;13.75;4.72;;;24.00;93.90;;;;;;5093921;28;20040;-72
2022/08/13 08:25:41;;;;;;;11.88;4.05;;;23.30;89.10;;;;;;5127771;27;20358;-72
2022/08/13 08:28:09;;;;;;;6.10;3.67;;;23.80;93.50;;;;;;5093790;28;20373;-71
2022/08/13 08:30:37;;;;;;;3.88;3.35;;;23.00;90.90;;;;;;5076777;28;20084;-71
2022/08/13 08:33:04;;;;;;;7.40;3.58;;;24.20;92.60;;;;;;5093538;28;20044;-72
2022/08/13 08:35:30;;;;;;;6.63;3.28;;;24.10;92.80;;;;;;5093701;28;20044;-72
2022/08/13 08:43:34;;;;;;;11.40;4.18;;;24.60;92.70;;;;;;5093027;28;20079;-71
2022/08/13 08:46:05;;;;;;;14.98;3.83;;;24.20;86.70;;;;;;5093202;28;20075;-72
2022/08/13 08:48:32;;;;;;;8.85;3.92;;;24.50;92.70;;;;;;5093225;28;20582;-72
2022/08/13 08:50:59;;;;;;;7.57;3.53;;;23.40;92.20;;;;;;5093088;28;20100;-71
2022/08/13 08:53:27;;;;;;;6.88;3.90;;;24.80;91.80;;;;;;5076586;28;20040;-72
2022/08/13 08:55:55;;;;;;;7.25;3.40;;;24.50;92.20;;;;;;5093177;28;20040;-72
2022/08/13 08:58:22;;;;;;;5.85;3.35;;;25.00;90.90;;;;;;5092863;28;20043;-72
2022/08/13 09:00:49;;;;;;;9.43;3.30;;;24.30;84.40;;;;;;5092892;28;20436;-72
2022/08/13 09:03:19;;;;;;;8.15;4.00;;;25.30;91.40;;;;;;5092889;28;20044;-72
2022/08/13 09:05:48;;;;;;;13.32;3.63;;;24.70;91.20;;;;;;5093087;28;20075;-71
2022/08/13 09:08:17;;;;;;;10.85;3.65;;;24.30;90.90;;;;;;5092743;28;20079;-72
2022/08/13 09:10:46;;;;;;;10.55;4.43;;;24.80;90.80;;;;;;5075775;28;20058;-72
2022/08/13 09:13:19;;;;;;;7.82;3.47;;;25.10;81.20;;;;;;5092809;28;20123;-72
2022/08/13 09:15:48;;;;;;;5.28;3.35;;;25.50;90.60;;;;;;5075847;28;20440;-72
2022/08/13 09:18:24;;;;;;;5.68;3.30;;;25.20;80.90;;;;;;5092560;28;20040;-72
2022/08/13 09:20:51;;;;;;;23.27;3.65;;;25.70;88.90;;;;;;5092547;28;20040;-72
2022/08/13 09:23:17;;;;;;;9.45;3.58;;;25.70;79.60;;;;;;5092458;28;20092;-72
2022/08/13 09:25:48;;;;;;;5.43;3.50;;;25.90;79.50;;;;;;5104392;28;20043;-72
2022/08/13 09:28:23;;;;;;;9.40;3.63;;;25.80;88.70;;;;;;5112682;28;20046;-72
2022/08/13 09:30:53;;;;;;;8.95;3.00;;;26.00;88.20;;;;;;5113063;28;20282;-72
2022/08/13 09:33:20;;;;;;;6.82;3.35;;;25.60;87.00;;;;;;5112547;28;20136;-72
2022/08/13 09:35:48;;;;;;;8.50;3.22;;;26.40;87.00;;;;;;5094580;28;20483;-72
2022/08/13 09:38:15;;;;;;;13.50;3.20;;;26.00;86.60;;;;;;5112758;28;20047;-72
2022/08/13 09:41:16;;;;;;;4.65;3.40;;;26.30;81.90;;;;;;5113027;28;20040;-72
2022/08/13 09:43:43;;;;;;;9.43;3.40;;;26.50;75.70;;;;;;5065480;28;20447;-72
2022/08/13 09:46:10;;;;;;;6.32;3.40;;;26.50;85.30;;;;;;5112584;28;20054;-72
2022/08/13 09:48:37;;;;;;;4.65;3.60;;;26.70;85.50;;;;;;5112508;28;20510;-72
2022/08/13 09:51:09;;;;;;;6.13;3.42;;;26.90;85.30;;;;;;5095531;28;20096;-72
2022/08/13 09:53:35;;;;;;;8.05;3.35;;;;;;;;;;5112538;28;20047;-72
2022/08/13 09:56:01;;;;;;;6.20;3.50;;;;;;;;;;5112590;28;20483;-72
2022/08/13 09:58:27;;;;;;;5.63;3.00;;;27.10;76.70;;;;;;5112319;28;20089;-72
2022/08/13 10:00:54;;;;;;;7.55;3.30;;;27.10;82.60;;;;;;5112413;28;20039;-72
2022/08/13 10:03:19;;;;;;;8.02;3.30;;;27.10;82.70;;;;;;5112710;28;20051;-72
2022/08/13 10:05:46;;;;;;;7.03;3.15;;;27.20;82.60;;;;;;5112499;28;20035;-72
2022/08/13 10:08:18;;;;;;;6.43;3.08;;;27.50;82.40;;;;;;5112648;28;20095;-72
2022/08/13 10:10:44;;;;;;;;;;;27.30;73.90;;;;;;5114011;28;20052;-72
2022/08/13 10:13:11;;;;;;;5.20;3.03;;;27.40;82.30;;;;;;5112698;28;19923;-72
2022/08/13 10:15:38;;;;;;;9.23;3.20;;;27.00;80.90;;;;;;5112330;28;20388;-72
2022/08/13 10:18:04;;;;;;;7.30;3.03;;;27.40;73.10;;;;;;5112413;28;20372;-72
2022/08/13 10:20:33;;;;;;;4.25;2.85;;;27.30;79.40;;;;;;5112555;28;20417;-72
2022/08/13 10:23:01;;;;;;;9.45;3.20;;;27.70;80.70;;;;;;5113680;28;20052;-72
2022/08/13 10:25:28;;;;;;;5.88;3.30;;;28.00;70.70;;;;;;5112653;28;20457;-72
2022/08/13 10:27:54;;;;;;;5.57;3.10;;;27.80;79.70;;;;;;5112378;28;20127;-72
2022/08/13 10:30:24;;;;;;;8.57;3.05;;;26.60;68.60;;;;;;5112663;28;20051;-72
2022/08/13 10:32:50;;;;;;;26.85;3.40;;;28.30;78.90;;;;;;5112103;28;20474;-72
2022/08/13 10:35:19;;;;;;;6.07;3.15;;;27.90;78.10;;;;;;5112184;28;20079;-72
2022/08/13 10:37:47;;;;;;;8.60;3.08;;;28.40;77.80;;;;;;5112395;28;20085;-72
2022/08/13 10:40:16;;;;;;;4.43;3.20;;;28.10;65.30;;;;;;5112178;28;20047;-72
2022/08/13 10:42:44;;;;;;;9.35;3.20;;;28.50;77.00;;;;;;5112464;28;20115;-72
2022/08/13 10:45:12;;;;;;;5.85;3.40;;;28.60;76.60;;;;;;5114215;28;20057;-72
2022/08/13 10:47:49;;;;;;;9.52;3.33;;;28.50;65.90;;;;;;5116256;28;20062;-72
2022/08/13 10:50:17;;;;;;;9.93;3.42;;;28.30;76.30;;;;;;5116210;28;20455;-72
2022/08/13 10:52:43;;;;;;;12.15;3.25;;;28.90;73.60;;;;;;5115827;28;20050;-72
2022/08/13 10:55:11;;;;;;;8.52;3.05;;;28.40;71.80;;;;;;5115853;28;20043;-72
2022/08/13 10:57:40;;;;;;;11.52;3.17;;;29.00;75.30;;;;;;5115752;28;20091;-72
2022/08/13 11:00:08;;;;;;;7.57;3.33;;;28.40;75.20;;;;;;5116046;28;20039;-72
2022/08/13 11:02:34;;;;;;;4.05;2.95;;;28.70;74.70;;;;;;5115658;28;20042;-72
2022/08/13 11:05:05;;;;;;;7.82;3.35;;;;;;;;;;5116196;28;20119;-72
2022/08/13 11:07:32;;;;;;;8.65;3.38;;;29.10;74.90;;;;;;5115690;28;20051;-72
2022/08/13 11:09:59;;;;;;;11.25;3.50;;;29.30;74.60;;;;;;5098610;28;20059;-72
2022/08/13 11:12:25;;;;;;;7.03;3.35;;;29.10;74.70;;;;;;5098574;28;20051;-72
2022/08/13 11:14:51;;;;;;;7.63;3.30;;;29.10;73.90;;;;;;5098495;28;20044;-72
2022/08/13 11:17:19;;;;;;;9.15;2.85;;;;;;;;;;5115609;28;20188;-72
2022/08/13 11:19:46;;;;;;;6.68;3.67;;;29.40;73.20;;;;;;5115607;28;20114;-72
2022/08/13 11:22:12;;;;;;;7.78;3.33;;;29.40;73.10;;;;;;5115646;28;20052;-72
2022/08/13 11:24:38;;;;;;;5.32;3.05;;;;;;;;;;5098451;28;20035;-72
2022/08/13 11:27:05;;;;;;;4.20;3.25;;;29.40;72.50;;;;;;5115275;28;20428;-72
2022/08/13 11:29:31;;;;;;;6.32;3.38;;;29.50;72.20;;;;;;5115122;28;20047;-72
2022/08/13 11:31:57;;;;;;;6.93;3.15;;;29.50;59.70;;;;;;5098290;28;20039;-72
2022/08/13 11:34:25;;;;;;;5.95;3.25;;;;;;;;;;5115253;28;20433;-72
2022/08/13 11:36:51;;;;;;;5.78;3.40;;;29.50;61.00;;;;;;5097952;28;20100;-72
2022/08/13 11:39:18;;;;;;;18.08;4.97;;;29.80;72.10;;;;;;5116256;28;20046;-72
2022/08/13 11:41:44;;;;;;;6.72;3.40;;;;;;;;;;5098045;28;20039;-72
2022/08/13 11:44:10;;;;;;;9.10;3.15;;;;;;;;;;5114964;28;20043;-72
2022/08/13 11:46:37;;;;;;;7.47;3.40;;;29.90;71.40;;;;;;5115039;28;20118;-72
2022/08/13 11:49:04;;;;;;;21.13;3.40;;;29.80;70.90;;;;;;5114800;28;20051;-72
2022/08/13 11:51:30;;;;;;;10.73;3.65;;;30.00;71.10;;;;;;5114798;28;20131;-72
2022/08/13 11:53:56;;;;;;;6.78;3.60;;;;;;;;;;5115246;28;20046;-72
2022/08/13 11:56:22;;;;;;;9.20;3.40;;;30.20;70.30;;;;;;5114529;28;20047;-72
2022/08/13 11:58:48;;;;;;;6.13;3.30;;;;;;;;;;5114757;28;20105;-72
2022/08/13 12:01:16;;;;;;;5.68;3.35;;;;;;;;;;5114621;28;20035;-73
2022/08/13 12:03:42;;;;;;;9.85;3.63;;;30.40;70.30;;;;;;5114691;28;20036;-72
2022/08/13 12:06:08;;;;;;;6.45;3.58;;;30.30;60.30;;;;;;5114567;28;20491;-72
2022/08/13 12:08:34;;;;;;;6.50;3.60;;;30.40;69.90;;;;;;5114561;28;20044;-72
2022/08/13 12:11:00;;;;;;;6.65;3.45;;;30.50;70.30;;;;;;5114421;28;20051;-72
2022/08/13 12:13:25;;;;;;;9.75;3.60;;;30.40;69.80;;;;;;5114773;28;20395;-72
2022/08/13 12:15:52;;;;;;;5.00;3.28;;;;;;;;;;5114442;28;20516;-72
2022/08/13 12:18:18;;;;;;;6.22;3.30;;;30.60;69.30;;;;;;5114149;28;20055;-72
2022/08/13 12:20:44;;;;;;;5.93;3.30;;;30.50;68.90;;;;;;5097308;28;20035;-71
2022/08/13 12:23:10;;;;;;;6.60;3.47;;;30.50;68.30;;;;;;5097173;28;20127;-71
2022/08/13 12:25:36;;;;;;;4.90;3.40;;;30.60;68.50;;;;;;5114231;28;20114;-71
2022/08/13 12:28:13;;;;;;;6.22;3.60;;;30.60;55.80;;;;;;5115380;28;20100;-71
2022/08/13 12:30:40;;;;;;;4.50;3.28;;;30.70;68.30;;;;;;5113975;28;20403;-71
2022/08/13 12:33:06;;;;;;;4.40;3.20;;;30.70;68.00;;;;;;5115227;28;20046;-71
2022/08/13 12:35:32;;;;;;;6.70;3.70;;;30.80;68.20;;;;;;5115204;28;20047;-71
2022/08/13 12:37:58;;;;;;;5.85;3.25;;;31.00;67.80;;;;;;5113929;28;20054;-71
2022/08/13 12:40:24;;;;;;;6.40;3.20;;;31.10;67.10;;;;;;5114101;28;20039;-71
2022/08/13 12:42:50;;;;;;;7.35;3.25;;;31.00;67.00;;;;;;5113781;28;20078;-71
2022/08/13 12:45:16;;;;;;;6.90;3.20;;;31.00;67.80;;;;;;5113645;28;20064;-71
2022/08/13 12:47:44;;;;;;;6.50;3.45;;;31.10;67.80;;;;;;5113678;28;20071;-72
2022/08/13 12:50:10;;;;;;;6.03;3.55;;;31.20;66.00;;;;;;5097175;28;20043;-73
2022/08/13 12:52:36;;;;;;;6.28;3.65;;;;;;;;;;5113927;28;20114;-72
2022/08/13 12:55:04;;;;;;;5.88;3.78;;;31.10;66.20;;;;;;5113477;28;20039;-71
2022/08/13 12:57:30;;;;;;;8.52;3.60;;;31.30;66.50;;;;;;5113402;28;20165;-71
2022/08/13 12:59:56;;;;;;;6.75;3.30;;;30.90;66.20;;;;;;5113292;28;20504;-71
2022/08/13 13:02:22;;;;;;;6.22;3.33;;;31.60;66.40;;;;;;5113390;28;20092;-71
2022/08/13 13:04:48;;;;;;;5.07;3.30;;;31.50;66.70;;;;;;5113685;28;20043;-71
2022/08/13 13:07:15;;;;;;;7.50;3.38;;;;;;;;;;5112547;28;20395;-71
2022/08/13 13:09:41;;;;;;;6.10;3.20;;;31.40;53.90;;;;;;5113430;28;20446;-71
2022/08/13 13:12:07;;;;;;;4.68;3.20;;;31.80;65.70;;;;;;5113243;28;20154;-71
2022/08/13 13:14:32;;;;;;;7.32;3.33;;;31.50;58.00;;;;;;5113174;28;20159;-71
2022/08/13 13:16:58;;;;;;;10.60;3.08;;;31.70;64.80;;;;;;5112995;28;20076;-71
2022/08/13 13:19:24;;;;;;;6.35;3.72;;;;;;;;;;5113100;28;20039;-71
2022/08/13 13:21:50;;;;;;;11.23;3.80;;;;;;;;;;5113318;28;20127;-71
2022/08/13 13:24:17;;;;;;;5.78;3.60;;;31.50;64.70;;;;;;5113111;28;20067;-71